createdAt,value
2023-02-28T00:02:34.661Z,3.7
2023-02-28T00:05:34.663Z,3.7
2023-02-28T00:08:34.669Z,3.7
2023-02-28T00:11:34.665Z,3.7
2023-02-28T00:14:34.695Z,3.7
2023-02-28T00:17:34.665Z,3.7
2023-02-28T00:20:34.680Z,3.7
2023-02-28T00:23:34.672Z,3.7
2023-02-28T00:26:34.675Z,3.7
2023-02-28T00:29:34.679Z,3.7
2023-02-28T00:32:34.720Z,3.7
2023-02-28T00:35:34.800Z,3.7
2023-02-28T00:38:34.698Z,3.7
2023-02-28T00:41:34.690Z,3.7
2023-02-28T00:44:34.692Z,3.7
2023-02-28T00:47:34.704Z,3.7
2023-02-28T00:50:34.722Z,3.7
2023-02-28T00:53:34.716Z,3.7
2023-02-28T00:56:34.705Z,3.7
2023-02-28T00:59:34.705Z,3.7
2023-02-28T01:02:34.710Z,3.7
2023-02-28T01:05:34.721Z,3.7
2023-02-28T01:08:34.746Z,3.6
2023-02-28T01:11:34.718Z,3.7
2023-02-28T01:14:34.712Z,3.6
2023-02-28T01:17:34.726Z,3.6
2023-02-28T01:20:34.724Z,3.6
2023-02-28T01:23:34.724Z,3.6
2023-02-28T01:26:34.748Z,3.6
2023-02-28T01:29:34.737Z,3.6
2023-02-28T01:32:34.745Z,3.6
2023-02-28T01:35:34.785Z,3.6
2023-02-28T01:38:34.736Z,3.6
2023-02-28T01:41:34.739Z,3.6
2023-02-28T01:44:34.767Z,3.6
2023-02-28T01:47:34.970Z,3.6
2023-02-28T01:50:34.748Z,3.6
2023-02-28T01:53:34.755Z,3.6
2023-02-28T01:56:34.764Z,3.6
2023-02-28T01:59:34.768Z,3.6
2023-02-28T02:02:34.831Z,3.6
2023-02-28T02:05:34.784Z,3.6
2023-02-28T02:08:34.785Z,3.6
2023-02-28T02:11:34.788Z,3.6
2023-02-28T02:14:34.800Z,3.6
2023-02-28T02:17:34.800Z,3.6
2023-02-28T02:20:34.836Z,3.6
2023-02-28T02:23:34.813Z,3.6
2023-02-28T02:26:34.808Z,3.6
2023-02-28T02:29:34.815Z,3.6
2023-02-28T02:32:34.843Z,3.6
2023-02-28T02:35:34.852Z,3.6
2023-02-28T02:38:34.856Z,3.6
2023-02-28T02:41:34.835Z,3.6
2023-02-28T02:44:34.843Z,3.6
2023-02-28T02:47:34.847Z,3.6
2023-02-28T02:50:34.854Z,3.6
2023-02-28T02:53:34.863Z,3.6
2023-02-28T02:56:34.897Z,3.6
2023-02-28T02:59:34.881Z,3.5
2023-02-28T03:02:34.885Z,3.5
2023-02-28T03:05:34.897Z,3.6
2023-02-28T03:08:34.902Z,3.5
2023-02-28T03:11:34.903Z,3.5
2023-02-28T03:14:34.924Z,3.5
2023-02-28T03:17:34.910Z,3.5
2023-02-28T03:20:34.925Z,3.5
2023-02-28T03:23:34.927Z,3.5
2023-02-28T03:26:34.941Z,3.5
2023-02-28T03:29:34.941Z,3.5
2023-02-28T03:32:35.033Z,3.5
2023-02-28T03:35:34.988Z,3.5
2023-02-28T03:38:34.969Z,3.5
2023-02-28T03:41:34.971Z,3.5
2023-02-28T03:44:34.977Z,3.5
2023-02-28T03:47:34.982Z,3.5
2023-02-28T03:50:35.020Z,3.5
2023-02-28T03:53:34.999Z,3.5
2023-02-28T03:56:34.996Z,3.4
2023-02-28T03:59:35.002Z,3.4
2023-02-28T04:02:35.054Z,3.4
2023-02-28T04:05:35.011Z,3.4
2023-02-28T04:08:35.043Z,3.4
2023-02-28T04:11:35.039Z,3.4
2023-02-28T04:14:35.036Z,3.4
2023-02-28T04:17:35.143Z,3.4
2023-02-28T04:20:35.058Z,3.4
2023-02-28T04:23:35.065Z,3.4
2023-02-28T04:26:35.091Z,3.4
2023-02-28T04:29:35.078Z,3.4
2023-02-28T04:32:35.137Z,3.4
2023-02-28T04:35:35.164Z,3.4
2023-02-28T04:38:35.103Z,3.4
2023-02-28T04:41:35.386Z,3.4
2023-02-28T04:44:35.157Z,3.4
2023-02-28T04:47:35.125Z,3.4
2023-02-28T04:50:35.129Z,3.4
2023-02-28T04:53:35.130Z,3.4
2023-02-28T04:56:35.149Z,3.4
2023-02-28T04:59:35.150Z,3.4
2023-02-28T05:02:35.243Z,3.4
2023-02-28T05:05:35.170Z,3.4
2023-02-28T05:08:35.166Z,3.4
2023-02-28T05:11:35.178Z,3.4
2023-02-28T05:14:35.174Z,3.4
2023-02-28T05:17:35.191Z,3.4
2023-02-28T05:20:35.226Z,3.4
2023-02-28T05:23:35.197Z,3.4
2023-02-28T05:26:35.208Z,3.4
2023-02-28T05:29:35.227Z,3.4
2023-02-28T05:32:35.253Z,3.4
2023-02-28T05:35:35.284Z,3.4
2023-02-28T05:38:36.842Z,3.3
2023-02-28T05:41:35.240Z,3.4
2023-02-28T05:44:35.246Z,3.3
2023-02-28T05:47:35.273Z,3.3
2023-02-28T05:50:35.264Z,3.3
2023-02-28T05:53:35.279Z,3.3
2023-02-28T05:56:35.299Z,3.3
2023-02-28T05:59:35.285Z,3.3
2023-02-28T06:02:35.317Z,3.3
2023-02-28T06:05:35.301Z,3.3
2023-02-28T06:08:35.308Z,3.3
2023-02-28T06:11:35.318Z,3.3
2023-02-28T06:14:35.350Z,3.3
2023-02-28T06:17:35.329Z,3.3
2023-02-28T06:20:35.357Z,3.3
2023-02-28T06:23:35.348Z,3.3
2023-02-28T06:26:35.353Z,3.3
2023-02-28T06:29:35.384Z,3.3
2023-02-28T06:32:35.390Z,3.3
2023-02-28T06:35:35.383Z,3.2
2023-02-28T06:38:35.382Z,3.2
2023-02-28T06:41:47.997Z,3.2
2023-02-28T06:44:35.394Z,3.3
2023-02-28T06:47:35.394Z,3.2
2023-02-28T06:50:35.527Z,3.2
2023-02-28T06:53:35.412Z,3.2
2023-02-28T06:56:35.418Z,3.2
2023-02-28T06:59:35.427Z,3.2
2023-02-28T07:02:35.426Z,3.2
2023-02-28T07:05:35.436Z,3.2
2023-02-28T07:08:35.487Z,3.2
2023-02-28T07:11:35.453Z,3.2
2023-02-28T07:14:35.453Z,3.2
2023-02-28T07:17:35.464Z,3.2
2023-02-28T07:20:35.475Z,3.2
2023-02-28T07:23:35.477Z,3.2
2023-02-28T07:26:35.524Z,3.2
2023-02-28T07:29:35.491Z,3.2
2023-02-28T07:32:35.496Z,3.2
2023-02-28T07:35:35.593Z,3.2
2023-02-28T07:38:35.500Z,3.2
2023-02-28T07:41:35.518Z,3.2
2023-02-28T07:44:35.571Z,3.2
2023-02-28T07:47:35.539Z,3.2
2023-02-28T07:50:35.556Z,3.2
2023-02-28T07:53:35.562Z,3.2
2023-02-28T07:56:35.564Z,3.2
2023-02-28T07:59:35.563Z,3.2
2023-02-28T08:02:35.597Z,3.2
2023-02-28T08:05:35.574Z,3.2
2023-02-28T08:08:35.590Z,3.2
2023-02-28T08:11:35.591Z,3.2
2023-02-28T08:14:35.603Z,3.2
2023-02-28T08:17:35.664Z,3.2
2023-02-28T08:20:35.655Z,3.2
2023-02-28T08:23:35.641Z,3.2
2023-02-28T08:26:35.657Z,3.1
2023-02-28T08:29:35.671Z,3.2
2023-02-28T08:32:35.776Z,3.2
2023-02-28T08:35:35.728Z,3.1
2023-02-28T08:38:35.728Z,3.1
2023-02-28T08:41:35.713Z,3.1
2023-02-28T08:44:35.737Z,3.1
2023-02-28T08:47:35.731Z,3.1
2023-02-28T08:50:35.740Z,3.1
2023-02-28T08:53:35.756Z,3.1
2023-02-28T08:56:35.787Z,3.1
2023-02-28T08:59:35.790Z,3.1
2023-02-28T09:02:35.789Z,3.1
2023-02-28T09:05:35.805Z,3.1
2023-02-28T09:08:35.812Z,3.1
2023-02-28T09:11:35.826Z,3.1
2023-02-28T09:14:35.860Z,3.1
2023-02-28T09:17:35.852Z,3.1
2023-02-28T09:20:35.959Z,3.1
2023-02-28T09:23:35.873Z,3.1
2023-02-28T09:26:42.300Z,3.1
2023-02-28T09:29:35.905Z,3.1
2023-02-28T09:32:35.939Z,3.1
2023-02-28T09:35:35.928Z,3.1
2023-02-28T09:38:35.928Z,3.1
2023-02-28T09:41:35.937Z,3.1
2023-02-28T09:44:35.964Z,3.1
2023-02-28T09:47:35.984Z,3.1
2023-02-28T09:50:35.988Z,3.1
2023-02-28T09:53:35.972Z,3.1
2023-02-28T09:56:35.967Z,3.1
2023-02-28T09:59:35.982Z,3.1
2023-02-28T10:02:35.990Z,3.1
2023-02-28T10:05:35.983Z,3.1
2023-02-28T10:08:36.012Z,3.1
2023-02-28T10:11:35.995Z,3.1
2023-02-28T10:14:36.003Z,3.1
2023-02-28T10:17:39.875Z,3.1
2023-02-28T10:20:36.003Z,3.1
2023-02-28T10:23:36.006Z,3.1
2023-02-28T10:26:36.040Z,3.1
2023-02-28T10:29:36.014Z,3
2023-02-28T10:32:36.042Z,3.1
2023-02-28T10:35:36.032Z,3.1
2023-02-28T10:38:36.032Z,3
2023-02-28T10:41:36.037Z,3
2023-02-28T10:44:36.079Z,3
2023-02-28T10:47:36.048Z,3
2023-02-28T10:50:36.059Z,3
2023-02-28T10:53:44.964Z,3
2023-02-28T10:56:36.318Z,3
2023-02-28T10:59:36.082Z,3
2023-02-28T11:02:36.394Z,3
2023-02-28T11:05:36.080Z,3
2023-02-28T11:08:36.093Z,3
2023-02-28T11:11:36.080Z,3
2023-02-28T11:14:36.079Z,3
2023-02-28T11:17:36.086Z,3
2023-02-28T11:20:36.113Z,3
2023-02-28T11:23:37.870Z,3
2023-02-28T11:26:36.220Z,3
2023-02-28T11:29:36.106Z,3
2023-02-28T11:32:36.235Z,3
2023-02-28T11:35:36.195Z,3
2023-02-28T11:38:36.144Z,3
2023-02-28T11:41:36.123Z,3
2023-02-28T11:44:36.128Z,3
2023-02-28T11:47:36.128Z,3
2023-02-28T11:50:36.139Z,3
2023-02-28T11:53:36.140Z,3
2023-02-28T11:56:36.177Z,3
2023-02-28T11:59:36.154Z,3
2023-02-28T12:02:36.207Z,3
2023-02-28T12:05:36.181Z,3
2023-02-28T12:08:36.169Z,3
2023-02-28T12:11:36.175Z,3
2023-02-28T12:14:36.227Z,3
2023-02-28T12:17:36.197Z,3.1
2023-02-28T12:20:36.193Z,3.1
2023-02-28T12:23:36.201Z,3.1
2023-02-28T12:26:36.203Z,3
2023-02-28T12:29:36.203Z,3.1
2023-02-28T12:32:36.284Z,3.1
2023-02-28T12:35:36.229Z,3.1
2023-02-28T12:38:36.217Z,3.1
2023-02-28T12:41:36.230Z,3.1
2023-02-28T12:44:36.252Z,3.1
2023-02-28T12:47:36.233Z,3.1
2023-02-28T12:50:36.256Z,3.1
2023-02-28T12:53:36.233Z,3.1
2023-02-28T12:56:36.252Z,3.1
2023-02-28T12:59:36.238Z,3.1
2023-02-28T13:02:36.315Z,3.1
2023-02-28T13:05:36.251Z,3.1
2023-02-28T13:08:37.797Z,3.1
2023-02-28T13:11:36.853Z,3.1
2023-02-28T13:14:36.271Z,3.1
2023-02-28T13:17:36.263Z,3.1
2023-02-28T13:20:36.279Z,3.1
2023-02-28T13:23:36.281Z,3.1
2023-02-28T13:26:36.311Z,3.1
2023-02-28T13:29:36.277Z,3.2
2023-02-28T13:32:36.283Z,3.2
2023-02-28T13:35:36.353Z,3.2
2023-02-28T13:38:36.293Z,3.2
2023-02-28T13:41:36.300Z,3.2
2023-02-28T13:44:36.325Z,3.2
2023-02-28T13:47:36.306Z,3.2
2023-02-28T13:50:36.312Z,3.2
2023-02-28T13:53:36.331Z,3.2
2023-02-28T13:56:36.323Z,3.2
2023-02-28T13:59:36.336Z,3.2
2023-02-28T14:02:36.353Z,3.2
2023-02-28T14:05:36.335Z,3.2
2023-02-28T14:08:36.339Z,3.2
2023-02-28T14:11:36.343Z,3.2
2023-02-28T14:14:36.374Z,3.2
2023-02-28T14:17:36.478Z,3.2
2023-02-28T14:20:36.388Z,3.3
2023-02-28T14:23:36.365Z,3.2
2023-02-28T14:26:36.459Z,3.3
2023-02-28T14:29:36.372Z,3.3
2023-02-28T14:32:36.374Z,3.3
2023-02-28T14:35:36.440Z,3.3
2023-02-28T14:38:36.407Z,3.3
2023-02-28T14:41:36.553Z,3.3
2023-02-28T14:44:36.399Z,3.3
2023-02-28T14:47:36.402Z,3.3
2023-02-28T14:50:36.402Z,3.4
2023-02-28T14:53:36.405Z,3.3
2023-02-28T14:56:36.430Z,3.4
2023-02-28T14:59:36.414Z,3.4
2023-02-28T15:02:36.445Z,3.4
2023-02-28T15:05:36.429Z,3.4
2023-02-28T15:08:36.428Z,3.4
2023-02-28T15:11:36.438Z,3.4
2023-02-28T15:14:36.472Z,3.4
2023-02-28T15:17:36.444Z,3.4
2023-02-28T15:20:36.445Z,3.4
2023-02-28T15:23:36.453Z,3.4
2023-02-28T15:26:36.466Z,3.4
2023-02-28T15:29:36.453Z,3.4
2023-02-28T15:32:36.606Z,3.4
2023-02-28T15:35:36.465Z,3.4
2023-02-28T15:38:36.471Z,3.4
2023-02-28T15:41:36.473Z,3.4
2023-02-28T15:44:38.002Z,3.4
2023-02-28T15:47:36.473Z,3.4
2023-02-28T15:50:36.501Z,3.4
2023-02-28T15:53:36.475Z,3.4
2023-02-28T15:56:36.483Z,3.4
2023-02-28T15:59:36.490Z,3.4
2023-02-28T16:02:36.694Z,3.4
2023-02-28T16:05:36.490Z,3.4
2023-02-28T16:08:36.515Z,3.4
2023-02-28T16:11:36.499Z,3.5
2023-02-28T16:14:36.489Z,3.5
2023-02-28T16:17:36.491Z,3.4
2023-02-28T16:20:36.492Z,3.5
2023-02-28T16:23:36.499Z,3.5
2023-02-28T16:26:36.519Z,3.5
2023-02-28T16:29:36.506Z,3.5
2023-02-28T16:32:36.501Z,3.5
2023-02-28T16:35:36.505Z,3.5
2023-02-28T16:38:36.515Z,3.5
2023-02-28T16:41:36.509Z,3.5
2023-02-28T16:44:36.556Z,3.5
2023-02-28T16:47:36.504Z,3.5
2023-02-28T16:50:36.505Z,3.5
2023-02-28T16:53:36.508Z,3.5
2023-02-28T16:56:36.514Z,3.5
2023-02-28T16:59:36.513Z,3.5
2023-02-28T17:02:36.741Z,3.5
2023-02-28T17:05:36.533Z,3.5
2023-02-28T17:08:36.558Z,3.5
2023-02-28T17:11:36.575Z,3.5
2023-02-28T17:14:36.604Z,3.5
2023-02-28T17:17:36.592Z,3.5
2023-02-28T17:20:36.632Z,3.5
2023-02-28T17:23:36.627Z,3.5
2023-02-28T17:26:36.640Z,3.5
2023-02-28T17:29:36.654Z,3.6
2023-02-28T17:32:36.722Z,3.5
2023-02-28T17:35:36.760Z,3.5
2023-02-28T17:38:36.712Z,3.5
2023-02-28T17:41:36.696Z,3.6
2023-02-28T17:44:36.704Z,3.6
2023-02-28T17:47:36.709Z,3.6
2023-02-28T17:50:36.718Z,3.6
2023-02-28T17:53:36.730Z,3.6
2023-02-28T17:56:36.852Z,3.6
2023-02-28T17:59:36.736Z,3.6
2023-02-28T18:02:36.775Z,3.6
2023-02-28T18:05:37.236Z,3.5
2023-02-28T18:08:36.751Z,3.5
2023-02-28T18:11:36.795Z,3.6
2023-02-28T18:14:36.794Z,3.5
2023-02-28T18:17:36.768Z,3.6
2023-02-28T18:20:36.772Z,3.6
2023-02-28T18:23:36.776Z,3.6
2023-02-28T18:26:36.789Z,3.6
2023-02-28T18:29:36.792Z,3.6
2023-02-28T18:32:36.815Z,3.6
2023-02-28T18:35:36.878Z,3.5
2023-02-28T18:38:36.793Z,3.6
2023-02-28T18:41:36.807Z,3.6
2023-02-28T18:44:36.832Z,3.5
2023-02-28T18:47:36.828Z,3.6
2023-02-28T18:50:36.852Z,3.6
2023-02-28T18:53:36.832Z,3.6
2023-02-28T18:56:36.833Z,3.6
2023-02-28T18:59:36.833Z,3.6
2023-02-28T19:02:36.842Z,3.5
2023-02-28T19:05:36.839Z,3.6
2023-02-28T19:08:36.873Z,3.5
2023-02-28T19:11:36.991Z,3.6
2023-02-28T19:14:36.851Z,3.5
2023-02-28T19:17:36.863Z,3.5
2023-02-28T19:20:36.878Z,3.5
2023-02-28T19:23:36.877Z,3.5
2023-02-28T19:26:36.904Z,3.5
2023-02-28T19:29:36.889Z,3.5
2023-02-28T19:32:37.045Z,3.6
2023-02-28T19:35:36.918Z,3.5
2023-02-28T19:38:36.899Z,3.5
2023-02-28T19:41:36.896Z,3.5
2023-02-28T19:44:36.931Z,3.5
2023-02-28T19:47:36.914Z,3.5
2023-02-28T19:50:36.913Z,3.5
2023-02-28T19:53:36.912Z,3.5
2023-02-28T19:56:36.922Z,3.5
2023-02-28T19:59:39.208Z,3.5
2023-02-28T20:02:37.053Z,3.5
2023-02-28T20:05:36.928Z,3.5
2023-02-28T20:08:36.933Z,3.5
2023-02-28T20:11:36.933Z,3.5
2023-02-28T20:14:36.935Z,3.5
2023-02-28T20:17:36.943Z,3.5
2023-02-28T20:20:36.972Z,3.5
2023-02-28T20:23:36.946Z,3.5
2023-02-28T20:26:36.949Z,3.5
2023-02-28T20:29:36.963Z,3.5
2023-02-28T20:32:36.961Z,3.5
2023-02-28T20:35:36.983Z,3.5
2023-02-28T20:38:36.998Z,3.5
2023-02-28T20:41:36.974Z,3.4
2023-02-28T20:44:36.977Z,3.4
2023-02-28T20:48:25.916Z,3.4
2023-02-28T20:50:31.203Z,3.4
2023-02-28T20:53:31.212Z,3.4
2023-02-28T20:56:31.399Z,3.5
2023-02-28T20:59:31.234Z,3.5
2023-02-28T21:04:09.632Z,3.4
2023-02-28T21:07:09.651Z,3.4
2023-02-28T21:10:09.724Z,3.4
2023-02-28T21:13:09.697Z,3.4
2023-02-28T21:16:09.702Z,3.4
2023-02-28T21:19:09.697Z,3.4
2023-02-28T21:22:09.713Z,3.4
2023-02-28T21:25:09.725Z,3.4
2023-02-28T21:28:09.729Z,3.4
2023-02-28T21:31:09.857Z,3.4
2023-02-28T21:34:09.782Z,3.4
2023-02-28T21:37:09.768Z,3.4
2023-02-28T21:40:09.776Z,3.4
2023-02-28T21:46:15.902Z,3.4
2023-02-28T21:49:15.740Z,3.4
2023-02-28T21:52:15.744Z,3.4
2023-02-28T21:55:15.754Z,3.4
2023-02-28T21:58:15.758Z,3.4
2023-02-28T22:01:15.872Z,3.4
2023-02-28T22:04:15.809Z,3.4
2023-02-28T22:07:15.789Z,3.4
2023-02-28T22:10:15.793Z,3.4
2023-02-28T22:13:15.798Z,3.4
2023-02-28T22:16:15.846Z,3.4
2023-02-28T22:19:15.825Z,3.4
2023-02-28T22:22:15.855Z,3.4
2023-02-28T22:25:15.839Z,3.4
2023-02-28T22:28:15.845Z,3.4
2023-02-28T22:31:15.922Z,3.4
2023-02-28T22:34:15.864Z,3.4
2023-02-28T22:37:15.870Z,3.4
2023-02-28T22:40:15.935Z,3.4
2023-02-28T22:43:15.887Z,3.4
2023-02-28T22:46:15.924Z,3.4
2023-02-28T22:49:15.913Z,3.4
2023-02-28T22:52:15.917Z,3.3
2023-02-28T22:55:15.920Z,3.3
2023-02-28T22:58:15.960Z,3.3
2023-02-28T23:01:15.958Z,3.3
2023-02-28T23:04:16.045Z,3.3
2023-02-28T23:07:15.970Z,3.3
2023-02-28T23:10:15.981Z,3.3
2023-02-28T23:13:15.980Z,3.3
2023-02-28T23:16:16.026Z,3.3
2023-02-28T23:19:16.015Z,3.3
2023-02-28T23:22:16.006Z,3.3
2023-02-28T23:25:16.016Z,3.3
2023-02-28T23:28:16.026Z,3.3
2023-02-28T23:31:16.058Z,3.3
2023-02-28T23:34:16.069Z,3.3
2023-02-28T23:37:16.059Z,3.3
2023-02-28T23:40:16.064Z,3.3
2023-02-28T23:43:16.071Z,3.3
2023-02-28T23:46:16.128Z,3.3
2023-02-28T23:49:16.103Z,3.2
2023-02-28T23:52:16.123Z,3.2
2023-02-28T23:55:16.109Z,3.2
2023-02-28T23:58:16.116Z,3.2
